Time;durP1;ratioP1;P1;durP2;ratioP2;P2;SDS_P1;SDS_P2;PMS_P1;PMS_P2;Temp;Humidity;BMP_temperature;BMP_pressure;BME280_temperature;BME280_humidity;BME280_pressure;Samples;Min_cycle;Max_cycle;Signal;HPM_P1;HPM_P2
2022/09/26 00:00:47;;;;;;;3.42;1.80;;;16.50;99.90;;;;;;5032386;28;20194;-75
2022/09/26 00:03:18;;;;;;;4.18;1.75;;;16.60;99.90;;;;;;5035564;28;20209;-75
2022/09/26 00:05:49;;;;;;;6.07;2.03;;;16.60;99.90;;;;;;5036036;28;20313;-73
2022/09/26 00:08:19;;;;;;;8.23;1.75;;;16.60;99.90;;;;;;5038496;28;20189;-74
2022/09/26 00:10:59;;;;;;;6.40;2.15;;;16.60;99.90;;;;;;5028954;28;20202;-73
2022/09/26 00:13:33;;;;;;;5.78;2.05;;;16.60;99.90;;;;;;5032793;28;20200;-75
2022/09/26 00:16:04;;;;;;;8.55;2.13;;;16.50;99.90;;;;;;5032381;28;20190;-76
2022/09/26 00:18:35;;;;;;;5.63;2.05;;;16.60;99.90;;;;;;5032603;28;20194;-76
2022/09/26 00:21:07;;;;;;;3.75;1.52;;;16.50;99.90;;;;;;5038642;28;20191;-76
2022/09/26 00:23:38;;;;;;;4.50;1.70;;;16.60;99.90;;;;;;5032053;28;20574;-77
2022/09/26 00:26:09;;;;;;;5.55;1.90;;;16.60;99.90;;;;;;5027313;28;20217;-73
2022/09/26 00:28:42;;;;;;;4.13;1.50;;;16.70;99.90;;;;;;5032162;28;20194;-77
2022/09/26 00:31:14;;;;;;;6.65;1.80;;;16.70;99.90;;;;;;5034110;28;20210;-74
2022/09/26 00:33:45;;;;;;;7.85;2.00;;;16.90;99.90;;;;;;5027415;28;20198;-76
2022/09/26 00:36:16;;;;;;;5.57;1.70;;;16.90;99.90;;;;;;5021899;28;20268;-76
2022/09/26 00:38:48;;;;;;;6.65;1.70;;;17.00;99.90;;;;;;5030777;28;20202;-74
2022/09/26 00:41:19;;;;;;;9.25;1.80;;;17.00;99.90;;;;;;5024948;28;20187;-75
2022/09/26 00:43:54;;;;;;;3.25;1.58;;;17.00;99.90;;;;;;5033170;28;20198;-72
2022/09/26 00:46:31;;;;;;;4.97;1.60;;;17.10;99.90;;;;;;5026278;28;20602;-76
2022/09/26 00:49:08;;;;;;;4.43;1.73;;;17.10;99.90;;;;;;5033020;28;20534;-74
2022/09/26 00:51:43;;;;;;;4.40;1.88;;;17.20;99.90;;;;;;5031917;28;20190;-76
2022/09/26 00:54:16;;;;;;;3.88;1.63;;;17.30;99.90;;;;;;5036217;28;20185;-76
2022/09/26 00:56:50;;;;;;;8.68;1.75;;;17.40;99.90;;;;;;5035906;28;20190;-77
2022/09/26 00:59:25;;;;;;;7.25;1.70;;;17.60;99.90;;;;;;5027816;28;20201;-76
2022/09/26 01:01:57;;;;;;;5.65;1.80;;;17.60;99.90;;;;;;5037084;28;20625;-77
2022/09/26 01:04:31;;;;;;;5.32;1.80;;;17.80;99.90;;;;;;5033953;28;20202;-76
2022/09/26 01:07:04;;;;;;;6.13;1.65;;;17.90;99.90;;;;;;5035453;28;20309;-74
2022/09/26 01:09:35;;;;;;;3.78;1.60;;;18.00;99.90;;;;;;5029332;28;20186;-77
2022/09/26 01:12:07;;;;;;;5.60;1.70;;;18.20;99.90;;;;;;5035720;28;20191;-77
2022/09/26 01:14:41;;;;;;;3.78;1.55;;;18.30;99.90;;;;;;5035743;28;20191;-76
2022/09/26 01:17:13;;;;;;;7.65;1.75;;;18.40;99.90;;;;;;5035670;28;20194;-76
2022/09/26 01:19:52;;;;;;;6.80;1.90;;;18.50;99.90;;;;;;5035829;28;20198;-76
2022/09/26 01:22:59;;;;;;;6.53;1.90;;;18.60;99.90;;;;;;5034641;28;20201;-76
2022/09/26 01:25:49;;;;;;;5.85;2.10;;;18.60;99.90;;;;;;5025024;28;20265;-76
2022/09/26 01:28:36;;;;;;;7.85;3.10;;;18.80;99.90;;;;;;5035259;28;20564;-76
2022/09/26 01:31:17;;;;;;;6.85;2.03;;;18.80;99.90;;;;;;5033463;28;20272;-74
2022/09/26 01:33:58;;;;;;;6.75;2.10;;;18.80;99.90;;;;;;5033280;28;20186;-74
2022/09/26 01:37:03;;;;;;;4.03;2.00;;;18.90;99.90;;;;;;5026652;28;20221;-68
2022/09/26 01:39:43;;;;;;;6.22;2.30;;;18.90;99.90;;;;;;5034739;28;20194;-69
2022/09/26 01:42:26;;;;;;;5.80;2.08;;;19.00;99.90;;;;;;5027642;28;20194;-73
2022/09/26 01:45:06;;;;;;;5.32;1.90;;;19.10;99.90;;;;;;5016127;28;20195;-76
2022/09/26 01:47:43;;;;;;;5.50;1.80;;;19.10;99.90;;;;;;5032993;28;20201;-73
2022/09/26 01:50:23;;;;;;;6.13;1.92;;;19.20;99.90;;;;;;5034697;28;20197;-75
2022/09/26 01:52:59;;;;;;;5.00;2.03;;;19.30;99.90;;;;;;5026565;28;20201;-76
2022/09/26 01:55:33;;;;;;;5.13;2.00;;;19.10;99.90;;;;;;5034486;28;20251;-72
2022/09/26 01:58:10;;;;;;;5.90;2.00;;;19.30;99.90;;;;;;5033833;28;20197;-71
2022/09/26 02:00:43;;;;;;;5.32;1.92;;;19.30;99.90;;;;;;5035464;28;20190;-69
2022/09/26 02:03:19;;;;;;;6.70;2.00;;;19.40;99.90;;;;;;5033490;28;20225;-69
2022/09/26 02:05:54;;;;;;;3.47;1.90;;;19.40;99.90;;;;;;5024731;28;20681;-70
2022/09/26 02:08:29;;;;;;;4.40;1.92;;;19.50;99.90;;;;;;5037816;28;20193;-69
2022/09/26 02:11:05;;;;;;;4.05;1.60;;;19.50;99.90;;;;;;5030666;28;20251;-69
2022/09/26 02:13:41;;;;;;;4.10;1.85;;;19.60;99.90;;;;;;5035560;28;20182;-72
2022/09/26 02:16:27;;;;;;;7.78;2.13;;;19.70;99.90;;;;;;5034823;28;20273;-68
2022/09/26 02:19:05;;;;;;;6.22;2.15;;;19.80;99.90;;;;;;5033369;28;20210;-70
2022/09/26 02:21:40;;;;;;;4.72;2.10;;;19.90;99.90;;;;;;5034622;28;20198;-70
2022/09/26 02:24:11;;;;;;;6.78;2.00;;;20.10;99.90;;;;;;5027185;28;20182;-69
2022/09/26 02:26:42;;;;;;;4.75;2.13;;;20.20;99.90;;;;;;5034389;28;20218;-68
2022/09/26 02:29:15;;;;;;;9.82;2.25;;;20.50;99.90;;;;;;5026223;28;20241;-69
2022/09/26 02:31:52;;;;;;;2.45;1.60;;;20.60;99.90;;;;;;5029438;28;20651;-69
2022/09/26 02:34:26;;;;;;;6.30;2.20;;;20.50;99.90;;;;;;5028625;28;20204;-69
2022/09/26 02:36:57;;;;;;;4.18;1.90;;;20.50;99.90;;;;;;5033298;28;20228;-69
2022/09/26 02:39:28;;;;;;;4.22;2.30;;;20.40;99.90;;;;;;5034350;28;20716;-69
2022/09/26 02:42:10;;;;;;;4.20;1.90;;;20.30;99.90;;;;;;5035013;28;20202;-70
2022/09/26 02:44:56;;;;;;;5.93;2.33;;;20.10;99.90;;;;;;5028580;28;20252;-70
2022/09/26 02:47:50;;;;;;;8.13;2.20;;;19.90;99.90;;;;;;5033732;28;20241;-68
2022/09/26 02:50:32;;;;;;;7.20;2.00;;;19.80;99.90;;;;;;5033912;28;20190;-70
2022/09/26 02:53:15;;;;;;;3.08;1.85;;;19.80;99.90;;;;;;5033844;28;20212;-69
2022/09/26 02:55:52;;;;;;;7.07;2.28;;;19.70;99.90;;;;;;5024459;28;20672;-69
2022/09/26 02:58:35;;;;;;;9.10;2.17;;;19.80;99.90;;;;;;5026552;28;20209;-69
2022/09/26 03:01:14;;;;;;;3.33;1.70;;;19.80;99.90;;;;;;5033908;28;20252;-69
2022/09/26 03:03:51;;;;;;;4.70;2.05;;;19.80;99.90;;;;;;5032305;28;20194;-69
2022/09/26 03:06:34;;;;;;;4.28;2.40;;;19.90;99.90;;;;;;5032384;28;20214;-69
2022/09/26 03:09:06;;;;;;;7.60;2.35;;;19.80;99.90;;;;;;5027631;28;20557;-70
2022/09/26 03:11:38;;;;;;;5.47;2.00;;;19.90;99.90;;;;;;5032888;28;20198;-70
2022/09/26 03:14:10;;;;;;;4.63;1.92;;;20.00;99.90;;;;;;5033114;28;20182;-72
2022/09/26 03:16:44;;;;;;;4.22;2.00;;;20.00;99.90;;;;;;5036328;28;20556;-69
2022/09/26 03:19:25;;;;;;;4.75;1.80;;;20.00;99.90;;;;;;5034249;28;20217;-68
2022/09/26 03:21:58;;;;;;;5.50;1.95;;;19.90;99.90;;;;;;5028795;28;20191;-68
2022/09/26 03:24:29;;;;;;;4.80;1.70;;;19.80;99.90;;;;;;5033354;28;20194;-69
2022/09/26 03:27:03;;;;;;;4.60;1.88;;;19.70;99.90;;;;;;5033042;28;20221;-70
2022/09/26 03:29:34;;;;;;;2.58;1.60;;;19.70;99.90;;;;;;5033040;28;20232;-68
2022/09/26 03:32:05;;;;;;;5.60;1.70;;;19.60;99.90;;;;;;5031585;28;20212;-69
2022/09/26 03:34:38;;;;;;;4.43;1.67;;;19.60;99.90;;;;;;5033175;28;20646;-69
2022/09/26 03:37:11;;;;;;;7.05;2.10;;;19.50;99.90;;;;;;5032685;28;20240;-68
2022/09/26 03:39:41;;;;;;;2.85;1.38;;;19.40;99.90;;;;;;5033150;28;20218;-69
2022/09/26 03:42:13;;;;;;;5.40;1.60;;;19.50;99.90;;;;;;5029651;28;20194;-68
2022/09/26 03:44:43;;;;;;;4.95;1.52;;;19.60;99.90;;;;;;5033111;28;20561;-69
2022/09/26 03:47:14;;;;;;;3.83;1.50;;;19.70;99.90;;;;;;5032816;28;20670;-68
2022/09/26 03:49:45;;;;;;;3.10;1.38;;;19.90;99.90;;;;;;5032863;28;20530;-70
2022/09/26 03:52:17;;;;;;;3.30;1.52;;;20.20;99.90;;;;;;5032723;28;20190;-68
2022/09/26 03:54:48;;;;;;;4.07;1.60;;;20.10;99.90;;;;;;5030042;28;20584;-68
2022/09/26 03:57:20;;;;;;;5.13;1.50;;;20.10;99.90;;;;;;5031468;28;20209;-70
2022/09/26 03:59:50;;;;;;;2.38;1.35;;;20.00;99.90;;;;;;5028697;28;20205;-76
2022/09/26 04:02:21;;;;;;;5.90;1.70;;;20.20;99.90;;;;;;5024715;28;20205;-75
2022/09/26 04:04:52;;;;;;;4.13;1.50;;;20.10;99.90;;;;;;5027894;28;20198;-74
2022/09/26 04:07:25;;;;;;;2.70;1.48;;;20.10;99.90;;;;;;5030334;28;20585;-77
2022/09/26 04:09:55;;;;;;;3.58;1.70;;;20.10;99.90;;;;;;5026976;28;20328;-76
2022/09/26 04:12:26;;;;;;;3.45;1.48;;;20.10;99.90;;;;;;5031749;28;20213;-75
2022/09/26 04:14:57;;;;;;;2.65;1.40;;;20.10;99.90;;;;;;5030907;28;20190;-71
2022/09/26 04:17:28;;;;;;;3.90;1.50;;;20.00;99.90;;;;;;5032626;28;20224;-76
2022/09/26 04:19:58;;;;;;;6.18;1.48;;;20.00;99.90;;;;;;5027549;28;20206;-77
2022/09/26 04:22:31;;;;;;;4.70;1.50;;;19.90;99.90;;;;;;5031737;28;20208;-76
2022/09/26 04:25:02;;;;;;;2.53;1.40;;;19.90;99.90;;;;;;5029978;28;20198;-76
2022/09/26 04:27:34;;;;;;;2.67;1.30;;;19.80;99.90;;;;;;5030096;28;20232;-76
2022/09/26 04:30:05;;;;;;;3.85;1.40;;;19.70;99.90;;;;;;5032895;28;20690;-75
2022/09/26 04:32:35;;;;;;;5.63;1.42;;;19.60;99.90;;;;;;5034017;28;20200;-78
2022/09/26 04:35:06;;;;;;;4.63;1.75;;;19.40;99.90;;;;;;5035120;28;20202;-75
2022/09/26 04:37:40;;;;;;;6.55;3.33;;;19.40;99.90;;;;;;5031517;28;20624;-76
2022/09/26 04:40:12;;;;;;;6.72;2.90;;;19.40;99.90;;;;;;5029970;28;20465;-76
2022/09/26 04:42:43;;;;;;;12.68;7.40;;;19.50;99.90;;;;;;5036489;28;20182;-74
2022/09/26 04:45:14;;;;;;;5.63;2.10;;;19.50;99.90;;;;;;5032739;28;20550;-75
2022/09/26 04:47:44;;;;;;;6.50;1.60;;;19.60;99.90;;;;;;5032826;28;20276;-74
2022/09/26 04:50:15;;;;;;;7.75;1.63;;;19.50;99.90;;;;;;5031627;28;20202;-76
2022/09/26 04:52:48;;;;;;;6.07;3.50;;;19.60;99.90;;;;;;5035750;28;20198;-74
2022/09/26 04:55:19;;;;;;;3.75;1.67;;;19.50;99.90;;;;;;5034305;28;20203;-77
2022/09/26 04:57:51;;;;;;;3.20;1.52;;;19.50;99.90;;;;;;5035422;28;20189;-76
2022/09/26 05:00:22;;;;;;;6.75;1.65;;;19.60;99.90;;;;;;5036046;28;20565;-70
2022/09/26 05:02:54;;;;;;;3.80;1.60;;;19.70;99.90;;;;;;5035129;28;20260;-71
2022/09/26 05:05:25;;;;;;;3.78;1.52;;;19.80;99.90;;;;;;5033681;28;20190;-71
2022/09/26 05:07:57;;;;;;;3.22;1.23;;;20.00;99.90;;;;;;5033926;28;20218;-69
2022/09/26 05:10:28;;;;;;;3.13;1.20;;;20.10;99.90;;;;;;5033737;28;20206;-69
2022/09/26 05:13:02;;;;;;;3.45;1.50;;;20.10;99.90;;;;;;5032887;28;20221;-70
2022/09/26 05:15:37;;;;;;;4.38;1.58;;;20.10;99.90;;;;;;5034174;28;20198;-70
2022/09/26 05:18:10;;;;;;;2.95;1.20;;;20.20;99.90;;;;;;5033818;28;20566;-69
2022/09/26 05:20:44;;;;;;;3.53;1.30;;;20.20;99.90;;;;;;5035555;28;20191;-70
2022/09/26 05:26:18;;;;;;;3.08;1.30;;;20.20;99.90;;;;;;5034020;28;20328;-69
2022/09/26 05:26:20;;;;;;;3.55;1.58;;;20.00;99.90;;;;;;5034455;28;20280;-69
2022/09/26 05:28:53;;;;;;;4.10;2.10;;;19.80;99.90;;;;;;5035295;28;20206;-68
2022/09/26 05:31:25;;;;;;;3.25;2.03;;;19.80;99.90;;;;;;5030758;28;20222;-70
2022/09/26 05:33:56;;;;;;;2.13;1.38;;;19.80;99.90;;;;;;5032171;28;20267;-70
2022/09/26 05:36:27;;;;;;;3.47;1.40;;;19.80;99.90;;;;;;5032771;28;20261;-68
2022/09/26 05:38:59;;;;;;;2.33;1.17;;;19.60;99.90;;;;;;5031549;28;20197;-69
2022/09/26 05:41:30;;;;;;;3.10;1.40;;;19.50;99.90;;;;;;5031314;28;20198;-69
2022/09/26 05:44:01;;;;;;;4.53;1.45;;;19.30;99.90;;;;;;5032306;28;20186;-71
2022/09/26 05:46:33;;;;;;;5.10;1.35;;;19.20;99.90;;;;;;5024841;28;20665;-69
2022/09/26 05:49:05;;;;;;;3.85;1.48;;;19.10;99.90;;;;;;5034798;28;20193;-69
2022/09/26 05:51:36;;;;;;;2.97;1.20;;;19.00;99.90;;;;;;5031817;28;20191;-69
2022/09/26 05:54:09;;;;;;;6.18;1.42;;;18.90;99.90;;;;;;5034297;28;20553;-69
2022/09/26 05:56:40;;;;;;;3.92;1.40;;;18.90;99.90;;;;;;5026910;28;20194;-69
2022/09/26 05:59:11;;;;;;;4.70;1.40;;;18.90;99.90;;;;;;5033069;28;20201;-69
2022/09/26 06:01:41;;;;;;;5.10;1.55;;;18.80;99.90;;;;;;5034021;28;20206;-70
2022/09/26 06:04:12;;;;;;;2.63;1.42;;;18.80;99.90;;;;;;5036371;28;20202;-71
2022/09/26 06:06:43;;;;;;;5.22;1.70;;;18.80;99.90;;;;;;5033812;28;20191;-70
2022/09/26 06:09:16;;;;;;;3.58;1.50;;;18.70;99.90;;;;;;5034276;28;20189;-70
2022/09/26 06:11:46;;;;;;;3.22;1.40;;;18.60;99.90;;;;;;5034749;28;20194;-70
2022/09/26 06:14:17;;;;;;;2.80;1.60;;;18.60;99.90;;;;;;5033818;28;20182;-71
2022/09/26 06:16:48;;;;;;;1.65;1.33;;;18.60;99.90;;;;;;5035859;28;20203;-70
2022/09/26 06:19:19;;;;;;;3.15;1.33;;;18.60;99.90;;;;;;5028973;28;20564;-71
2022/09/26 06:21:49;;;;;;;2.53;1.13;;;18.50;99.90;;;;;;5033234;28;20204;-69
2022/09/26 06:24:22;;;;;;;2.22;1.20;;;18.40;99.90;;;;;;5035648;28;20202;-69
2022/09/26 06:26:53;;;;;;;3.80;1.40;;;18.40;99.90;;;;;;5033118;28;20225;-69
2022/09/26 06:29:23;;;;;;;4.82;1.40;;;18.30;99.90;;;;;;5037166;28;20689;-70
2022/09/26 06:31:54;;;;;;;3.53;1.20;;;18.30;99.90;;;;;;5032669;28;20197;-70
2022/09/26 06:34:25;;;;;;;2.67;1.27;;;18.30;99.90;;;;;;5027677;28;20209;-71
2022/09/26 06:36:56;;;;;;;3.53;1.40;;;18.30;99.90;;;;;;5033475;28;20626;-71
2022/09/26 06:39:34;;;;;;;1.95;1.35;;;18.30;99.90;;;;;;5035055;28;20642;-70
2022/09/26 06:42:06;;;;;;;3.08;1.50;;;18.30;99.90;;;;;;5034808;28;20198;-70
2022/09/26 06:44:36;;;;;;;3.03;1.33;;;18.20;99.90;;;;;;5033502;28;20198;-71
2022/09/26 06:47:07;;;;;;;3.15;1.33;;;18.10;99.90;;;;;;5032431;28;20571;-70
2022/09/26 06:49:38;;;;;;;2.65;1.20;;;18.10;99.90;;;;;;5028654;28;20932;-73
2022/09/26 06:52:10;;;;;;;2.25;1.42;;;18.10;99.90;;;;;;5030412;28;20233;-72
2022/09/26 06:54:43;;;;;;;3.35;1.40;;;18.00;99.90;;;;;;5033602;28;20201;-71
2022/09/26 06:57:14;;;;;;;4.43;1.33;;;18.00;99.90;;;;;;5038506;28;20202;-71
2022/09/26 06:59:45;;;;;;;1.95;1.40;;;17.90;99.90;;;;;;5032126;28;20551;-71
2022/09/26 07:02:16;;;;;;;4.05;1.45;;;17.90;99.90;;;;;;5033868;28;20202;-73
2022/09/26 07:04:47;;;;;;;4.03;1.38;;;17.90;99.90;;;;;;5034185;28;20195;-73
2022/09/26 07:07:18;;;;;;;3.63;1.48;;;17.80;99.90;;;;;;5032962;28;20285;-76
2022/09/26 07:09:50;;;;;;;5.07;1.50;;;17.70;99.90;;;;;;5033589;28;20193;-73
2022/09/26 07:12:23;;;;;;;2.67;1.48;;;17.70;99.90;;;;;;5030959;28;20194;-74
2022/09/26 07:14:54;;;;;;;4.18;1.83;;;17.70;99.90;;;;;;5033306;28;20651;-72
2022/09/26 07:17:24;;;;;;;5.95;1.70;;;17.60;99.90;;;;;;5028557;28;20194;-75
2022/09/26 07:19:55;;;;;;;4.25;1.70;;;17.60;99.90;;;;;;5033762;28;20975;-75
2022/09/26 07:22:26;;;;;;;4.55;1.52;;;17.50;99.90;;;;;;5037512;28;20192;-70
2022/09/26 07:24:59;;;;;;;5.72;1.80;;;17.50;99.90;;;;;;5033783;28;20195;-68
2022/09/26 07:27:29;;;;;;;4.47;1.70;;;17.40;99.90;;;;;;5033260;28;20226;-69
2022/09/26 07:30:00;;;;;;;2.75;1.48;;;17.40;99.90;;;;;;5033328;28;20300;-69
2022/09/26 07:32:32;;;;;;;3.08;1.70;;;17.40;99.90;;;;;;5032789;28;20200;-69
2022/09/26 07:35:03;;;;;;;2.33;1.50;;;17.40;99.90;;;;;;5032360;28;20194;-71
2022/09/26 07:37:33;;;;;;;5.63;1.83;;;17.40;99.90;;;;;;5032658;28;20229;-71
2022/09/26 07:40:06;;;;;;;5.53;2.15;;;17.30;99.90;;;;;;5030118;28;20198;-71
2022/09/26 07:42:38;;;;;;;3.50;1.50;;;17.30;99.90;;;;;;5034431;28;20265;-75
2022/09/26 07:45:09;;;;;;;4.68;1.65;;;17.30;99.90;;;;;;5032146;28;20409;-70
2022/09/26 07:50:30;;;;;;;2.83;1.75;;;17.30;99.90;;;;;;5032510;28;20401;-69
2022/09/26 07:53:01;;;;;;;4.82;1.60;;;17.30;99.90;;;;;;5029764;28;20213;-71
2022/09/26 07:56:04;;;;;;;4.97;1.70;;;17.30;99.90;;;;;;5026439;28;20729;-71
2022/09/26 07:58:25;;;;;;;2.50;1.55;;;17.30;99.90;;;;;;5028850;28;20673;-71
2022/09/26 08:00:55;;;;;;;2.95;1.95;;;17.30;99.90;;;;;;5026322;28;20190;-70
2022/09/26 08:03:27;;;;;;;2.85;2.15;;;17.20;99.90;;;;;;5030327;28;20204;-69
2022/09/26 08:06:00;;;;;;;4.38;1.77;;;17.20;99.90;;;;;;5032820;28;20613;-69
2022/09/26 08:08:30;;;;;;;5.57;1.95;;;17.20;99.90;;;;;;5032672;28;20210;-69
2022/09/26 08:11:04;;;;;;;2.97;1.92;;;17.20;99.90;;;;;;5030757;28;20241;-71
2022/09/26 08:13:35;;;;;;;4.55;2.05;;;17.20;99.90;;;;;;5027482;28;20198;-69
2022/09/26 08:16:07;;;;;;;3.83;2.38;;;17.10;99.90;;;;;;5032883;28;20209;-70
2022/09/26 08:18:38;;;;;;;4.85;1.80;;;17.10;99.90;;;;;;5031559;28;20204;-69
2022/09/26 08:21:09;;;;;;;3.40;1.75;;;17.10;99.90;;;;;;5032712;28;20190;-70
2022/09/26 08:23:39;;;;;;;3.38;1.70;;;17.10;99.90;;;;;;5032664;28;20201;-70
2022/09/26 08:26:12;;;;;;;3.35;2.17;;;17.10;99.90;;;;;;5026867;28;20204;-70
2022/09/26 08:28:43;;;;;;;4.78;2.20;;;17.10;99.90;;;;;;5029865;28;20217;-69
2022/09/26 08:31:15;;;;;;;3.78;1.98;;;17.10;99.90;;;;;;5030386;28;20545;-70
2022/09/26 08:33:46;;;;;;;6.13;1.90;;;17.10;99.90;;;;;;5028502;28;20209;-69
2022/09/26 08:36:18;;;;;;;3.13;1.75;;;17.00;99.90;;;;;;5028990;28;20198;-69
2022/09/26 08:38:52;;;;;;;4.72;1.90;;;17.10;99.90;;;;;;5030330;28;20198;-70
2022/09/26 08:41:38;;;;;;;6.68;2.15;;;17.00;99.90;;;;;;5024224;28;20682;-69
2022/09/26 08:44:23;;;;;;;5.32;1.90;;;17.00;99.90;;;;;;5030849;28;20637;-70
2022/09/26 08:47:00;;;;;;;3.40;1.90;;;17.00;99.90;;;;;;5031879;28;20198;-74
2022/09/26 08:49:43;;;;;;;8.07;2.35;;;17.00;99.90;;;;;;5029503;28;20214;-76
2022/09/26 08:52:28;;;;;;;4.95;2.03;;;17.00;99.90;;;;;;5030800;28;20190;-76
2022/09/26 08:55:01;;;;;;;4.90;2.17;;;17.00;99.90;;;;;;5031290;28;20202;-76
2022/09/26 08:57:42;;;;;;;8.05;2.30;;;17.00;99.90;;;;;;5024583;28;20226;-77
2022/09/26 09:00:20;;;;;;;3.75;2.00;;;17.00;99.90;;;;;;5029870;28;20563;-71
2022/09/26 09:03:03;;;;;;;7.35;2.22;;;17.00;99.90;;;;;;5032487;28;20190;-70
2022/09/26 09:05:37;;;;;;;6.70;2.08;;;17.00;99.90;;;;;;5024575;28;20623;-72
2022/09/26 09:08:15;;;;;;;3.78;2.17;;;16.90;99.90;;;;;;5029056;28;20214;-75
2022/09/26 09:10:54;;;;;;;3.03;2.00;;;16.90;99.90;;;;;;5019295;28;20190;-72
2022/09/26 09:13:48;;;;;;;3.95;2.10;;;16.90;99.90;;;;;;5024889;28;20209;-75
2022/09/26 09:16:34;;;;;;;4.93;2.30;;;16.90;99.90;;;;;;5028334;28;20570;-72
2022/09/26 09:19:13;;;;;;;3.00;2.20;;;16.90;99.90;;;;;;5030748;28;20194;-75
2022/09/26 09:21:55;;;;;;;4.75;2.30;;;16.90;99.90;;;;;;5027514;28;20957;-76
2022/09/26 09:24:52;;;;;;;3.85;2.00;;;16.90;99.90;;;;;;5028612;28;20190;-75
2022/09/26 09:27:35;;;;;;;4.75;2.20;;;16.90;99.90;;;;;;5031882;28;20195;-74
2022/09/26 09:30:17;;;;;;;4.13;2.03;;;16.80;99.90;;;;;;5028548;28;20229;-75
2022/09/26 09:32:57;;;;;;;8.90;2.38;;;16.80;99.90;;;;;;5030048;28;20200;-76
2022/09/26 09:35:37;;;;;;;3.28;2.08;;;16.80;99.90;;;;;;5026755;28;20202;-76
2022/09/26 09:38:11;;;;;;;4.68;2.03;;;16.80;99.90;;;;;;5034012;28;20236;-76
2022/09/26 09:40:47;;;;;;;4.78;2.00;;;16.80;99.90;;;;;;5026624;28;20238;-75
2022/09/26 09:43:25;;;;;;;5.90;2.50;;;16.80;99.90;;;;;;5026924;28;20220;-69
2022/09/26 09:46:04;;;;;;;6.35;2.53;;;16.90;99.90;;;;;;5034208;28;20198;-69
2022/09/26 09:48:36;;;;;;;5.53;2.90;;;16.90;99.90;;;;;;5030079;28;20214;-74
2022/09/26 09:51:30;;;;;;;7.18;2.20;;;16.90;99.90;;;;;;5030519;28;20199;-71
2022/09/26 09:54:32;;;;;;;5.82;2.20;;;16.80;99.90;;;;;;5030392;28;20194;-70
2022/09/26 09:57:31;;;;;;;4.10;2.20;;;16.80;99.90;;;;;;5035066;28;20209;-69
2022/09/26 10:00:10;;;;;;;3.42;2.17;;;16.80;99.90;;;;;;5032411;28;20627;-70
2022/09/26 10:02:52;;;;;;;3.65;2.20;;;16.80;99.90;;;;;;5028910;28;20198;-70
2022/09/26 10:05:32;;;;;;;4.20;2.50;;;16.80;99.90;;;;;;5033079;28;20195;-68
2022/09/26 10:08:03;;;;;;;6.07;2.10;;;16.80;99.90;;;;;;5026531;28;20217;-68
2022/09/26 10:10:42;;;;;;;4.13;2.00;;;16.80;99.90;;;;;;5024478;28;20194;-69
2022/09/26 10:13:14;;;;;;;6.82;2.10;;;16.80;99.90;;;;;;5026647;28;20293;-69
2022/09/26 10:15:49;;;;;;;4.03;1.98;;;16.80;99.90;;;;;;5028875;28;20194;-69
2022/09/26 10:18:22;;;;;;;3.45;1.90;;;16.80;99.90;;;;;;5027620;28;20197;-69
2022/09/26 10:20:56;;;;;;;4.68;2.25;;;16.80;99.90;;;;;;5028491;28;20194;-69
2022/09/26 10:23:33;;;;;;;2.65;1.90;;;16.80;99.90;;;;;;5026517;28;20203;-69
2022/09/26 10:26:05;;;;;;;6.05;2.10;;;16.80;99.90;;;;;;5026818;28;20210;-69
2022/09/26 10:28:37;;;;;;;6.50;2.28;;;16.80;99.90;;;;;;5027957;28;20218;-70
2022/09/26 10:31:10;;;;;;;4.78;2.40;;;16.80;99.90;;;;;;5028327;28;20201;-69
2022/09/26 10:33:58;;;;;;;3.65;2.30;;;16.80;99.90;;;;;;5030022;28;20677;-69
2022/09/26 10:36:35;;;;;;;5.72;2.20;;;16.70;99.90;;;;;;5027604;28;20236;-75
2022/09/26 10:42:07;;;;;;;5.63;2.70;;;16.70;99.90;;;;;;5031550;28;20239;-74
2022/09/26 10:44:38;;;;;;;6.57;2.70;;;16.70;99.90;;;;;;5032965;28;20197;-74
2022/09/26 10:47:15;;;;;;;7.72;1.85;;;16.70;99.90;;;;;;5034287;28;20187;-73
2022/09/26 10:49:51;;;;;;;6.22;2.10;;;16.70;99.90;;;;;;5033106;28;20217;-75
2022/09/26 10:52:25;;;;;;;5.88;1.90;;;16.70;99.90;;;;;;5033394;28;20190;-75
2022/09/26 10:54:59;;;;;;;5.05;2.05;;;16.70;99.90;;;;;;5033731;28;20190;-75
2022/09/26 10:57:38;;;;;;;5.38;2.15;;;16.70;99.90;;;;;;5033622;28;20197;-74
2022/09/26 11:00:10;;;;;;;6.10;2.05;;;16.70;99.90;;;;;;5030760;28;20275;-74
2022/09/26 11:02:50;;;;;;;4.55;2.10;;;16.70;99.90;;;;;;5032616;28;20202;-74
2022/09/26 11:08:13;;;;;;;5.85;2.10;;;16.60;99.90;;;;;;5030645;28;20218;-75
2022/09/26 11:10:48;;;;;;;5.78;2.10;;;16.60;99.90;;;;;;5030243;28;20204;-75
2022/09/26 11:13:20;;;;;;;3.88;1.92;;;16.60;99.90;;;;;;5033082;28;20260;-70
2022/09/26 11:16:01;;;;;;;5.70;2.30;;;16.60;99.90;;;;;;5033285;28;20194;-70
2022/09/26 11:18:44;;;;;;;4.47;1.75;;;16.60;99.90;;;;;;5032467;28;20657;-72
2022/09/26 11:21:24;;;;;;;8.45;1.70;;;16.60;99.90;;;;;;5031684;28;20662;-74
2022/09/26 11:24:03;;;;;;;3.95;1.90;;;16.60;99.90;;;;;;5034786;28;20265;-72
2022/09/26 11:26:40;;;;;;;4.15;2.13;;;16.60;99.90;;;;;;5032616;28;20186;-74
2022/09/26 11:29:17;;;;;;;4.80;2.15;;;16.60;99.90;;;;;;5032315;28;20231;-72
2022/09/26 11:31:49;;;;;;;4.65;2.08;;;16.60;99.90;;;;;;5039998;28;20190;-75
2022/09/26 11:34:26;;;;;;;3.05;1.90;;;16.60;99.90;;;;;;5031793;28;20190;-74
2022/09/26 11:37:20;;;;;;;3.05;2.00;;;16.60;99.90;;;;;;5026134;28;20229;-73
2022/09/26 11:40:02;;;;;;;7.97;2.20;;;16.60;99.90;;;;;;5033124;28;20210;-71
2022/09/26 11:42:42;;;;;;;4.72;1.90;;;16.50;99.90;;;;;;5030689;28;20193;-70
2022/09/26 11:45:23;;;;;;;5.35;2.08;;;16.50;99.90;;;;;;5032894;28;20194;-69
2022/09/26 11:48:26;;;;;;;3.70;2.00;;;16.50;99.90;;;;;;5023909;28;20202;-72
2022/09/26 11:51:03;;;;;;;4.10;2.10;;;16.50;99.90;;;;;;5030361;28;20190;-71
2022/09/26 11:53:52;;;;;;;3.28;1.98;;;16.50;99.90;;;;;;5026250;28;20209;-69
2022/09/26 11:56:41;;;;;;;4.88;1.95;;;16.50;99.90;;;;;;5031878;28;20190;-72
2022/09/26 11:59:29;;;;;;;5.47;2.03;;;16.50;99.90;;;;;;5032164;28;20554;-69
2022/09/26 12:02:21;;;;;;;5.80;1.92;;;16.50;99.90;;;;;;5029880;28;20599;-70
2022/09/26 12:05:28;;;;;;;4.03;1.75;;;16.50;99.90;;;;;;5032121;28;20568;-71
2022/09/26 12:08:12;;;;;;;4.55;2.20;;;16.50;99.90;;;;;;5032032;28;20209;-71
2022/09/26 12:10:53;;;;;;;4.00;2.05;;;16.50;99.90;;;;;;5034708;28;20612;-70
2022/09/26 12:13:35;;;;;;;5.60;2.03;;;16.50;99.90;;;;;;5036336;28;20243;-70
2022/09/26 12:16:15;;;;;;;7.15;2.25;;;16.50;99.90;;;;;;5032599;28;20528;-70
2022/09/26 12:18:57;;;;;;;5.55;2.50;;;16.50;99.90;;;;;;5031610;28;20268;-71
2022/09/26 12:21:37;;;;;;;4.05;1.90;;;16.50;99.90;;;;;;5028822;28;20212;-70
2022/09/26 12:24:17;;;;;;;5.43;2.45;;;16.50;99.90;;;;;;5034513;28;20208;-69
2022/09/26 12:26:57;;;;;;;5.30;2.40;;;16.50;99.90;;;;;;5031415;28;20198;-70
2022/09/26 12:29:37;;;;;;;5.93;2.30;;;16.50;99.90;;;;;;5024070;28;20308;-69
2022/09/26 12:32:27;;;;;;;5.32;1.90;;;16.50;99.90;;;;;;5028635;28;20228;-69
2022/09/26 12:35:28;;;;;;;6.22;1.95;;;16.50;99.90;;;;;;5031445;28;20202;-70
2022/09/26 12:38:31;;;;;;;4.47;2.00;;;16.50;99.90;;;;;;5036085;28;20228;-70
2022/09/26 12:41:25;;;;;;;4.90;2.20;;;16.50;99.90;;;;;;5042239;28;20212;-70
2022/09/26 12:44:30;;;;;;;4.32;2.30;;;16.40;99.90;;;;;;5029669;28;20190;-70
2022/09/26 12:47:27;;;;;;;5.20;2.30;;;16.40;99.90;;;;;;5027015;28;20654;-70
2022/09/26 12:50:18;;;;;;;5.25;2.30;;;16.40;99.90;;;;;;5031522;28;20214;-75
2022/09/26 12:53:21;;;;;;;7.05;2.38;;;16.40;99.90;;;;;;5030446;28;20194;-74
2022/09/26 12:56:01;;;;;;;5.38;2.20;;;16.40;99.90;;;;;;5002362;28;20194;-72
2022/09/26 12:58:47;;;;;;;5.78;2.20;;;16.30;99.90;;;;;;5027383;28;20198;-70
2022/09/26 13:01:34;;;;;;;6.95;2.20;;;16.30;99.90;;;;;;5033762;28;20198;-70
2022/09/26 13:04:43;;;;;;;3.00;1.98;;;16.30;99.90;;;;;;5035421;28;20298;-70
2022/09/26 13:07:25;;;;;;;3.35;2.00;;;16.20;99.90;;;;;;5017682;28;20594;-70
2022/09/26 13:10:23;;;;;;;6.32;2.00;;;16.20;99.90;;;;;;5034441;28;20217;-72
2022/09/26 13:13:23;;;;;;;4.32;2.00;;;16.20;99.90;;;;;;5034172;28;20202;-69
2022/09/26 13:16:11;;;;;;;3.80;1.95;;;16.20;99.90;;;;;;5034787;28;20289;-70
2022/09/26 13:18:48;;;;;;;3.95;1.88;;;16.10;99.90;;;;;;5035180;28;20226;-69
2022/09/26 13:21:24;;;;;;;8.82;2.05;;;16.10;99.90;;;;;;5035794;28;20196;-69
2022/09/26 13:23:58;;;;;;;7.97;2.13;;;16.10;99.90;;;;;;5038619;28;20190;-69
2022/09/26 13:26:33;;;;;;;6.15;2.25;;;16.10;99.90;;;;;;5034936;28;20566;-69
2022/09/26 13:29:09;;;;;;;5.00;2.20;;;16.00;99.90;;;;;;5034207;28;20244;-69
2022/09/26 13:31:44;;;;;;;4.90;2.25;;;15.90;99.90;;;;;;5034706;28;20208;-69
2022/09/26 13:34:19;;;;;;;3.70;2.30;;;15.90;99.90;;;;;;5034636;28;20202;-70
2022/09/26 13:36:51;;;;;;;5.88;2.20;;;15.80;99.90;;;;;;5033088;28;20226;-69
2022/09/26 13:39:29;;;;;;;7.18;2.33;;;15.80;99.90;;;;;;5039787;28;20198;-69
2022/09/26 13:42:05;;;;;;;7.80;2.28;;;15.80;99.90;;;;;;5028283;28;20200;-69
2022/09/26 13:44:54;;;;;;;5.38;2.25;;;15.80;99.90;;;;;;5034303;28;20560;-69